sensor_id;sensor_type;location;lat;lon;timestamp;P1;durP1;ratioP1;P2;durP2;ratioP2
10761;SDS011;5433;50.862;4.320;2024-03-02T00:01:05;0.70;;;0.70;;
10761;SDS011;5433;50.862;4.320;2024-03-02T00:03:31;1.77;;;0.90;;
10761;SDS011;5433;50.862;4.320;2024-03-02T00:05:58;1.50;;;0.70;;
10761;SDS011;5433;50.862;4.320;2024-03-02T00:08:25;1.10;;;0.70;;
10761;SDS011;5433;50.862;4.320;2024-03-02T00:10:51;0.63;;;0.63;;
10761;SDS011;5433;50.862;4.320;2024-03-02T00:13:19;1.65;;;0.63;;
10761;SDS011;5433;50.862;4.320;2024-03-02T00:15:48;1.25;;;0.80;;
10761;SDS011;5433;50.862;4.320;2024-03-02T00:18:19;0.90;;;0.55;;
10761;SDS011;5433;50.862;4.320;2024-03-02T00:20:45;1.10;;;0.70;;
10761;SDS011;5433;50.862;4.320;2024-03-02T00:23:14;1.48;;;0.85;;
10761;SDS011;5433;50.862;4.320;2024-03-02T00:25:44;0.57;;;0.57;;
10761;SDS011;5433;50.862;4.320;2024-03-02T00:28:31;0.60;;;0.60;;
10761;SDS011;5433;50.862;4.320;2024-03-02T00:31:03;0.70;;;0.70;;
10761;SDS011;5433;50.862;4.320;2024-03-02T00:35:58;0.88;;;0.60;;
10761;SDS011;5433;50.862;4.320;2024-03-02T00:38:28;0.60;;;0.40;;
10761;SDS011;5433;50.862;4.320;2024-03-02T00:40:54;0.50;;;0.50;;
10761;SDS011;5433;50.862;4.320;2024-03-02T00:46:00;0.50;;;0.50;;
10761;SDS011;5433;50.862;4.320;2024-03-02T00:48:26;0.90;;;0.60;;
10761;SDS011;5433;50.862;4.320;2024-03-02T00:50:52;0.60;;;0.60;;
10761;SDS011;5433;50.862;4.320;2024-03-02T00:53:19;0.77;;;0.65;;
10761;SDS011;5433;50.862;4.320;2024-03-02T00:55:49;0.47;;;0.45;;
10761;SDS011;5433;50.862;4.320;2024-03-02T00:58:15;0.82;;;0.75;;
10761;SDS011;5433;50.862;4.320;2024-03-02T01:00:41;0.80;;;0.75;;
10761;SDS011;5433;50.862;4.320;2024-03-02T01:03:07;0.80;;;0.60;;
10761;SDS011;5433;50.862;4.320;2024-03-02T01:05:35;0.60;;;0.60;;
10761;SDS011;5433;50.862;4.320;2024-03-02T01:08:01;0.80;;;0.63;;
10761;SDS011;5433;50.862;4.320;2024-03-02T01:10:27;0.70;;;0.50;;
10761;SDS011;5433;50.862;4.320;2024-03-02T01:12:53;0.50;;;0.50;;
10761;SDS011;5433;50.862;4.320;2024-03-02T01:15:19;0.40;;;0.40;;
10761;SDS011;5433;50.862;4.320;2024-03-02T01:17:45;0.70;;;0.52;;
10761;SDS011;5433;50.862;4.320;2024-03-02T01:20:13;1.48;;;0.50;;
10761;SDS011;5433;50.862;4.320;2024-03-02T01:22:39;0.63;;;0.50;;
10761;SDS011;5433;50.862;4.320;2024-03-02T01:25:05;0.73;;;0.45;;
10761;SDS011;5433;50.862;4.320;2024-03-02T01:27:31;0.40;;;0.40;;
10761;SDS011;5433;50.862;4.320;2024-03-02T01:29:57;0.45;;;0.45;;
10761;SDS011;5433;50.862;4.320;2024-03-02T01:32:24;0.73;;;0.50;;
10761;SDS011;5433;50.862;4.320;2024-03-02T01:34:50;1.33;;;0.52;;
10761;SDS011;5433;50.862;4.320;2024-03-02T01:37:16;0.60;;;0.60;;
10761;SDS011;5433;50.862;4.320;2024-03-02T01:39:42;0.85;;;0.70;;
10761;SDS011;5433;50.862;4.320;2024-03-02T01:42:08;2.60;;;0.50;;
10761;SDS011;5433;50.862;4.320;2024-03-02T01:44:35;0.50;;;0.50;;
10761;SDS011;5433;50.862;4.320;2024-03-02T01:47:01;1.75;;;0.52;;
10761;SDS011;5433;50.862;4.320;2024-03-02T01:49:28;0.73;;;0.47;;
10761;SDS011;5433;50.862;4.320;2024-03-02T01:51:54;1.55;;;0.60;;
10761;SDS011;5433;50.862;4.320;2024-03-02T01:54:20;1.08;;;0.70;;
10761;SDS011;5433;50.862;4.320;2024-03-02T01:56:46;1.45;;;0.70;;
10761;SDS011;5433;50.862;4.320;2024-03-02T02:02:21;1.45;;;0.80;;
10761;SDS011;5433;50.862;4.320;2024-03-02T02:04:47;0.60;;;0.50;;
10761;SDS011;5433;50.862;4.320;2024-03-02T02:07:13;0.82;;;0.60;;
10761;SDS011;5433;50.862;4.320;2024-03-02T02:09:41;0.80;;;0.60;;
10761;SDS011;5433;50.862;4.320;2024-03-02T02:12:07;1.80;;;0.60;;
10761;SDS011;5433;50.862;4.320;2024-03-02T02:14:33;1.45;;;0.70;;
10761;SDS011;5433;50.862;4.320;2024-03-02T02:16:59;1.27;;;0.70;;
10761;SDS011;5433;50.862;4.320;2024-03-02T02:19:25;1.08;;;0.80;;
10761;SDS011;5433;50.862;4.320;2024-03-02T02:21:51;2.65;;;0.80;;
10761;SDS011;5433;50.862;4.320;2024-03-02T02:24:17;1.27;;;0.68;;
10761;SDS011;5433;50.862;4.320;2024-03-02T02:26:43;1.17;;;0.60;;
10761;SDS011;5433;50.862;4.320;2024-03-02T02:29:09;2.78;;;0.60;;
10761;SDS011;5433;50.862;4.320;2024-03-02T02:31:38;2.60;;;0.82;;
10761;SDS011;5433;50.862;4.320;2024-03-02T02:34:05;2.15;;;0.60;;
10761;SDS011;5433;50.862;4.320;2024-03-02T02:36:31;1.55;;;0.90;;
10761;SDS011;5433;50.862;4.320;2024-03-02T02:38:57;1.02;;;0.60;;
10761;SDS011;5433;50.862;4.320;2024-03-02T02:41:23;2.78;;;0.73;;
10761;SDS011;5433;50.862;4.320;2024-03-02T02:43:49;1.63;;;0.80;;
10761;SDS011;5433;50.862;4.320;2024-03-02T02:46:15;2.50;;;0.65;;
10761;SDS011;5433;50.862;4.320;2024-03-02T02:48:41;1.13;;;0.68;;
10761;SDS011;5433;50.862;4.320;2024-03-02T02:51:07;2.00;;;0.80;;
10761;SDS011;5433;50.862;4.320;2024-03-02T02:53:33;1.45;;;0.77;;
10761;SDS011;5433;50.862;4.320;2024-03-02T02:56:00;1.25;;;0.80;;
10761;SDS011;5433;50.862;4.320;2024-03-02T02:58:26;2.05;;;0.70;;
10761;SDS011;5433;50.862;4.320;2024-03-02T03:00:52;1.48;;;0.82;;
10761;SDS011;5433;50.862;4.320;2024-03-02T03:03:21;1.27;;;0.60;;
10761;SDS011;5433;50.862;4.320;2024-03-02T03:05:48;2.78;;;0.70;;
10761;SDS011;5433;50.862;4.320;2024-03-02T03:08:14;2.03;;;0.70;;
10761;SDS011;5433;50.862;4.320;2024-03-02T03:10:41;1.52;;;0.70;;
10761;SDS011;5433;50.862;4.320;2024-03-02T03:13:07;1.70;;;0.60;;
10761;SDS011;5433;50.862;4.320;2024-03-02T03:15:36;2.60;;;0.70;;
10761;SDS011;5433;50.862;4.320;2024-03-02T03:18:02;2.22;;;0.70;;
10761;SDS011;5433;50.862;4.320;2024-03-02T03:20:29;1.33;;;0.70;;
10761;SDS011;5433;50.862;4.320;2024-03-02T03:22:55;0.88;;;0.57;;
10761;SDS011;5433;50.862;4.320;2024-03-02T03:25:21;2.42;;;0.70;;
10761;SDS011;5433;50.862;4.320;2024-03-02T03:27:47;4.30;;;0.80;;
10761;SDS011;5433;50.862;4.320;2024-03-02T03:30:13;1.30;;;0.80;;
10761;SDS011;5433;50.862;4.320;2024-03-02T03:32:39;2.08;;;0.70;;
10761;SDS011;5433;50.862;4.320;2024-03-02T03:35:06;2.15;;;0.80;;
10761;SDS011;5433;50.862;4.320;2024-03-02T03:37:32;1.85;;;0.80;;
10761;SDS011;5433;50.862;4.320;2024-03-02T03:40:01;1.85;;;0.70;;
10761;SDS011;5433;50.862;4.320;2024-03-02T03:42:31;1.75;;;0.80;;
10761;SDS011;5433;50.862;4.320;2024-03-02T03:44:57;2.17;;;0.75;;
10761;SDS011;5433;50.862;4.320;2024-03-02T03:47:23;0.70;;;0.70;;
10761;SDS011;5433;50.862;4.320;2024-03-02T03:49:49;2.15;;;0.80;;
10761;SDS011;5433;50.862;4.320;2024-03-02T03:52:15;2.40;;;0.80;;
10761;SDS011;5433;50.862;4.320;2024-03-02T03:54:41;1.50;;;0.65;;
10761;SDS011;5433;50.862;4.320;2024-03-02T03:57:08;0.70;;;0.60;;
10761;SDS011;5433;50.862;4.320;2024-03-02T03:59:34;2.72;;;0.70;;
10761;SDS011;5433;50.862;4.320;2024-03-02T04:02:00;1.70;;;0.70;;
10761;SDS011;5433;50.862;4.320;2024-03-02T04:04:25;3.08;;;0.70;;
10761;SDS011;5433;50.862;4.320;2024-03-02T04:06:52;1.00;;;0.68;;
10761;SDS011;5433;50.862;4.320;2024-03-02T04:09:18;1.88;;;0.98;;
10761;SDS011;5433;50.862;4.320;2024-03-02T04:11:44;1.10;;;0.70;;
10761;SDS011;5433;50.862;4.320;2024-03-02T04:14:10;1.55;;;0.80;;
10761;SDS011;5433;50.862;4.320;2024-03-02T04:16:37;1.33;;;0.80;;
10761;SDS011;5433;50.862;4.320;2024-03-02T04:19:03;2.95;;;0.90;;
10761;SDS011;5433;50.862;4.320;2024-03-02T04:21:30;1.90;;;0.70;;
10761;SDS011;5433;50.862;4.320;2024-03-02T04:23:56;2.22;;;0.70;;
10761;SDS011;5433;50.862;4.320;2024-03-02T04:26:23;2.22;;;0.80;;
10761;SDS011;5433;50.862;4.320;2024-03-02T04:28:50;2.30;;;0.80;;
10761;SDS011;5433;50.862;4.320;2024-03-02T04:31:16;1.98;;;0.68;;
10761;SDS011;5433;50.862;4.320;2024-03-02T04:33:42;1.52;;;0.93;;
10761;SDS011;5433;50.862;4.320;2024-03-02T04:36:08;3.00;;;0.77;;
10761;SDS011;5433;50.862;4.320;2024-03-02T04:38:35;2.88;;;0.80;;
10761;SDS011;5433;50.862;4.320;2024-03-02T04:41:01;2.50;;;0.80;;
10761;SDS011;5433;50.862;4.320;2024-03-02T04:43:27;1.63;;;0.80;;
10761;SDS011;5433;50.862;4.320;2024-03-02T04:45:53;1.38;;;0.93;;
10761;SDS011;5433;50.862;4.320;2024-03-02T04:48:19;3.17;;;0.93;;
10761;SDS011;5433;50.862;4.320;2024-03-02T04:50:45;4.10;;;0.80;;
10761;SDS011;5433;50.862;4.320;2024-03-02T04:53:11;2.33;;;0.90;;
10761;SDS011;5433;50.862;4.320;2024-03-02T04:55:37;1.92;;;0.77;;
10761;SDS011;5433;50.862;4.320;2024-03-02T04:58:05;3.08;;;0.85;;
10761;SDS011;5433;50.862;4.320;2024-03-02T05:00:32;1.27;;;0.80;;
10761;SDS011;5433;50.862;4.320;2024-03-02T05:02:57;3.25;;;0.90;;
10761;SDS011;5433;50.862;4.320;2024-03-02T05:05:23;2.25;;;0.60;;
10761;SDS011;5433;50.862;4.320;2024-03-02T05:07:49;1.70;;;0.93;;
10761;SDS011;5433;50.862;4.320;2024-03-02T05:10:15;2.58;;;0.90;;
10761;SDS011;5433;50.862;4.320;2024-03-02T05:12:41;2.17;;;0.70;;
10761;SDS011;5433;50.862;4.320;2024-03-02T05:15:07;1.92;;;0.80;;
10761;SDS011;5433;50.862;4.320;2024-03-02T05:17:35;3.10;;;1.05;;
10761;SDS011;5433;50.862;4.320;2024-03-02T05:20:01;1.65;;;0.90;;
10761;SDS011;5433;50.862;4.320;2024-03-02T05:22:27;2.42;;;1.00;;
10761;SDS011;5433;50.862;4.320;2024-03-02T05:24:53;1.52;;;0.80;;
10761;SDS011;5433;50.862;4.320;2024-03-02T05:27:19;1.30;;;0.80;;
10761;SDS011;5433;50.862;4.320;2024-03-02T05:29:46;1.80;;;0.85;;
10761;SDS011;5433;50.862;4.320;2024-03-02T05:32:12;4.25;;;1.10;;
10761;SDS011;5433;50.862;4.320;2024-03-02T05:34:38;2.33;;;1.00;;
10761;SDS011;5433;50.862;4.320;2024-03-02T05:37:04;1.02;;;0.85;;
10761;SDS011;5433;50.862;4.320;2024-03-02T05:39:30;2.55;;;0.80;;
10761;SDS011;5433;50.862;4.320;2024-03-02T05:41:56;2.38;;;0.95;;
10761;SDS011;5433;50.862;4.320;2024-03-02T05:44:22;3.40;;;0.85;;
10761;SDS011;5433;50.862;4.320;2024-03-02T05:46:47;1.92;;;0.90;;
10761;SDS011;5433;50.862;4.320;2024-03-02T05:49:13;3.47;;;1.00;;
10761;SDS011;5433;50.862;4.320;2024-03-02T05:51:39;2.88;;;1.05;;
10761;SDS011;5433;50.862;4.320;2024-03-02T05:54:06;2.10;;;0.90;;
10761;SDS011;5433;50.862;4.320;2024-03-02T05:56:32;2.53;;;0.90;;
10761;SDS011;5433;50.862;4.320;2024-03-02T05:58:58;2.67;;;1.02;;
10761;SDS011;5433;50.862;4.320;2024-03-02T06:01:44;1.52;;;0.80;;
10761;SDS011;5433;50.862;4.320;2024-03-02T06:04:12;2.45;;;1.05;;
10761;SDS011;5433;50.862;4.320;2024-03-02T06:06:38;1.60;;;0.80;;
10761;SDS011;5433;50.862;4.320;2024-03-02T06:09:04;2.55;;;0.80;;
10761;SDS011;5433;50.862;4.320;2024-03-02T06:11:33;3.25;;;0.93;;
10761;SDS011;5433;50.862;4.320;2024-03-02T06:13:59;2.40;;;1.05;;
10761;SDS011;5433;50.862;4.320;2024-03-02T06:16:25;5.55;;;1.00;;
10761;SDS011;5433;50.862;4.320;2024-03-02T06:18:51;3.65;;;1.00;;
10761;SDS011;5433;50.862;4.320;2024-03-02T06:21:18;3.38;;;0.95;;
10761;SDS011;5433;50.862;4.320;2024-03-02T06:23:44;2.08;;;1.00;;
10761;SDS011;5433;50.862;4.320;2024-03-02T06:26:10;3.17;;;0.98;;
10761;SDS011;5433;50.862;4.320;2024-03-02T06:28:37;4.80;;;1.20;;
10761;SDS011;5433;50.862;4.320;2024-03-02T06:31:03;5.70;;;1.35;;
10761;SDS011;5433;50.862;4.320;2024-03-02T06:33:29;4.30;;;1.05;;
10761;SDS011;5433;50.862;4.320;2024-03-02T06:35:55;4.25;;;1.08;;
10761;SDS011;5433;50.862;4.320;2024-03-02T06:38:21;2.05;;;0.90;;
10761;SDS011;5433;50.862;4.320;2024-03-02T06:40:47;3.80;;;1.17;;
10761;SDS011;5433;50.862;4.320;2024-03-02T06:43:13;3.00;;;1.10;;
10761;SDS011;5433;50.862;4.320;2024-03-02T06:45:39;2.55;;;1.10;;
10761;SDS011;5433;50.862;4.320;2024-03-02T06:48:05;2.80;;;1.00;;
10761;SDS011;5433;50.862;4.320;2024-03-02T06:50:31;3.15;;;1.20;;
10761;SDS011;5433;50.862;4.320;2024-03-02T06:52:57;3.17;;;1.20;;
10761;SDS011;5433;50.862;4.320;2024-03-02T06:55:23;2.78;;;0.90;;
10761;SDS011;5433;50.862;4.320;2024-03-02T06:57:49;4.18;;;1.08;;
10761;SDS011;5433;50.862;4.320;2024-03-02T07:00:16;4.93;;;1.20;;
10761;SDS011;5433;50.862;4.320;2024-03-02T07:02:43;3.95;;;0.93;;
10761;SDS011;5433;50.862;4.320;2024-03-02T07:05:09;5.85;;;1.30;;
10761;SDS011;5433;50.862;4.320;2024-03-02T07:07:35;2.90;;;1.00;;
10761;SDS011;5433;50.862;4.320;2024-03-02T07:10:02;4.57;;;1.35;;
10761;SDS011;5433;50.862;4.320;2024-03-02T07:12:29;2.53;;;0.93;;
10761;SDS011;5433;50.862;4.320;2024-03-02T07:14:54;3.40;;;1.20;;
10761;SDS011;5433;50.862;4.320;2024-03-02T07:17:30;2.85;;;1.25;;
10761;SDS011;5433;50.862;4.320;2024-03-02T07:19:56;6.07;;;1.30;;
10761;SDS011;5433;50.862;4.320;2024-03-02T07:22:22;7.25;;;1.20;;
10761;SDS011;5433;50.862;4.320;2024-03-02T07:24:48;3.55;;;1.30;;
10761;SDS011;5433;50.862;4.320;2024-03-02T07:27:14;3.63;;;1.23;;
10761;SDS011;5433;50.862;4.320;2024-03-02T07:29:40;4.88;;;1.40;;
10761;SDS011;5433;50.862;4.320;2024-03-02T07:32:07;3.33;;;1.35;;
10761;SDS011;5433;50.862;4.320;2024-03-02T07:34:33;6.45;;;1.50;;
10761;SDS011;5433;50.862;4.320;2024-03-02T07:36:59;5.05;;;1.50;;
10761;SDS011;5433;50.862;4.320;2024-03-02T07:39:25;5.28;;;1.70;;
10761;SDS011;5433;50.862;4.320;2024-03-02T07:41:51;5.32;;;1.23;;
10761;SDS011;5433;50.862;4.320;2024-03-02T07:44:17;3.83;;;1.00;;
10761;SDS011;5433;50.862;4.320;2024-03-02T07:46:44;7.35;;;1.40;;
10761;SDS011;5433;50.862;4.320;2024-03-02T07:49:11;3.72;;;1.17;;
10761;SDS011;5433;50.862;4.320;2024-03-02T07:51:39;4.50;;;1.20;;
10761;SDS011;5433;50.862;4.320;2024-03-02T07:54:05;4.80;;;1.20;;
10761;SDS011;5433;50.862;4.320;2024-03-02T07:56:31;3.55;;;1.27;;
10761;SDS011;5433;50.862;4.320;2024-03-02T07:58:57;8.02;;;3.28;;
10761;SDS011;5433;50.862;4.320;2024-03-02T08:01:26;3.75;;;1.10;;
10761;SDS011;5433;50.862;4.320;2024-03-02T08:03:52;5.57;;;1.35;;
10761;SDS011;5433;50.862;4.320;2024-03-02T08:06:18;2.83;;;1.23;;
10761;SDS011;5433;50.862;4.320;2024-03-02T08:08:46;3.88;;;1.10;;
10761;SDS011;5433;50.862;4.320;2024-03-02T08:11:12;4.53;;;1.40;;
10761;SDS011;5433;50.862;4.320;2024-03-02T08:13:38;5.55;;;1.30;;
10761;SDS011;5433;50.862;4.320;2024-03-02T08:16:04;3.85;;;1.27;;
10761;SDS011;5433;50.862;4.320;2024-03-02T08:18:34;5.60;;;1.20;;
10761;SDS011;5433;50.862;4.320;2024-03-02T08:21:00;4.90;;;1.20;;
10761;SDS011;5433;50.862;4.320;2024-03-02T08:23:26;3.33;;;1.20;;
10761;SDS011;5433;50.862;4.320;2024-03-02T08:25:52;5.75;;;1.15;;
10761;SDS011;5433;50.862;4.320;2024-03-02T08:28:18;4.10;;;1.35;;
10761;SDS011;5433;50.862;4.320;2024-03-02T08:33:48;5.32;;;1.50;;
10761;SDS011;5433;50.862;4.320;2024-03-02T08:36:14;4.13;;;1.33;;
10761;SDS011;5433;50.862;4.320;2024-03-02T08:38:40;7.90;;;1.70;;
10761;SDS011;5433;50.862;4.320;2024-03-02T08:41:07;5.50;;;1.38;;
10761;SDS011;5433;50.862;4.320;2024-03-02T08:43:33;5.00;;;1.33;;
10761;SDS011;5433;50.862;4.320;2024-03-02T08:45:59;4.95;;;1.88;;
10761;SDS011;5433;50.862;4.320;2024-03-02T08:48:25;3.70;;;1.42;;
10761;SDS011;5433;50.862;4.320;2024-03-02T08:50:51;5.00;;;1.45;;
10761;SDS011;5433;50.862;4.320;2024-03-02T08:53:17;2.83;;;1.20;;
10761;SDS011;5433;50.862;4.320;2024-03-02T08:55:45;6.47;;;1.60;;
10761;SDS011;5433;50.862;4.320;2024-03-02T08:58:11;4.70;;;1.40;;
10761;SDS011;5433;50.862;4.320;2024-03-02T09:00:37;4.55;;;1.20;;
10761;SDS011;5433;50.862;4.320;2024-03-02T09:03:03;4.70;;;1.30;;
10761;SDS011;5433;50.862;4.320;2024-03-02T09:05:29;6.18;;;1.40;;
10761;SDS011;5433;50.862;4.320;2024-03-02T09:07:55;6.82;;;1.73;;
10761;SDS011;5433;50.862;4.320;2024-03-02T09:10:21;4.95;;;1.33;;
10761;SDS011;5433;50.862;4.320;2024-03-02T09:12:47;4.10;;;1.10;;
10761;SDS011;5433;50.862;4.320;2024-03-02T09:15:13;3.70;;;1.13;;
10761;SDS011;5433;50.862;4.320;2024-03-02T09:17:42;2.55;;;1.20;;
10761;SDS011;5433;50.862;4.320;2024-03-02T09:20:08;3.80;;;1.20;;
10761;SDS011;5433;50.862;4.320;2024-03-02T09:22:34;5.25;;;1.33;;
10761;SDS011;5433;50.862;4.320;2024-03-02T09:25:00;4.50;;;1.23;;
10761;SDS011;5433;50.862;4.320;2024-03-02T09:27:26;6.40;;;1.33;;
10761;SDS011;5433;50.862;4.320;2024-03-02T09:29:52;5.63;;;1.30;;
10761;SDS011;5433;50.862;4.320;2024-03-02T09:32:18;2.97;;;1.20;;
10761;SDS011;5433;50.862;4.320;2024-03-02T09:34:44;4.75;;;1.10;;
10761;SDS011;5433;50.862;4.320;2024-03-02T09:37:10;6.18;;;1.55;;
10761;SDS011;5433;50.862;4.320;2024-03-02T09:39:36;4.32;;;1.48;;
10761;SDS011;5433;50.862;4.320;2024-03-02T09:42:02;2.17;;;1.13;;
10761;SDS011;5433;50.862;4.320;2024-03-02T09:44:29;5.80;;;1.45;;
10761;SDS011;5433;50.862;4.320;2024-03-02T09:46:55;8.07;;;1.55;;
10761;SDS011;5433;50.862;4.320;2024-03-02T09:49:22;4.28;;;1.30;;
10761;SDS011;5433;50.862;4.320;2024-03-02T09:51:49;4.30;;;1.20;;
10761;SDS011;5433;50.862;4.320;2024-03-02T09:54:18;5.10;;;1.33;;
10761;SDS011;5433;50.862;4.320;2024-03-02T09:56:44;4.90;;;1.17;;
10761;SDS011;5433;50.862;4.320;2024-03-02T09:59:11;5.47;;;1.40;;
10761;SDS011;5433;50.862;4.320;2024-03-02T10:01:38;4.43;;;1.35;;
10761;SDS011;5433;50.862;4.320;2024-03-02T10:04:04;6.15;;;1.30;;
10761;SDS011;5433;50.862;4.320;2024-03-02T10:06:31;3.45;;;0.90;;
10761;SDS011;5433;50.862;4.320;2024-03-02T10:08:57;5.40;;;1.33;;
10761;SDS011;5433;50.862;4.320;2024-03-02T10:11:30;3.53;;;1.02;;
10761;SDS011;5433;50.862;4.320;2024-03-02T10:14:04;7.63;;;1.30;;
10761;SDS011;5433;50.862;4.320;2024-03-02T10:16:33;6.10;;;1.30;;
10761;SDS011;5433;50.862;4.320;2024-03-02T10:19:03;6.30;;;1.40;;
10761;SDS011;5433;50.862;4.320;2024-03-02T10:21:40;5.30;;;1.20;;
10761;SDS011;5433;50.862;4.320;2024-03-02T10:24:07;4.90;;;1.40;;
10761;SDS011;5433;50.862;4.320;2024-03-02T10:26:33;4.55;;;1.30;;
10761;SDS011;5433;50.862;4.320;2024-03-02T10:28:59;4.53;;;1.15;;
10761;SDS011;5433;50.862;4.320;2024-03-02T10:31:25;3.67;;;1.05;;
10761;SDS011;5433;50.862;4.320;2024-03-02T10:33:54;5.47;;;1.25;;
10761;SDS011;5433;50.862;4.320;2024-03-02T10:36:20;4.55;;;1.42;;
10761;SDS011;5433;50.862;4.320;2024-03-02T10:38:46;6.18;;;1.38;;
10761;SDS011;5433;50.862;4.320;2024-03-02T10:41:23;6.88;;;1.40;;
10761;SDS011;5433;50.862;4.320;2024-03-02T10:43:52;2.85;;;1.20;;
10761;SDS011;5433;50.862;4.320;2024-03-02T10:46:24;4.10;;;1.17;;
10761;SDS011;5433;50.862;4.320;2024-03-02T10:48:53;4.45;;;1.10;;
10761;SDS011;5433;50.862;4.320;2024-03-02T10:51:18;4.47;;;1.10;;
10761;SDS011;5433;50.862;4.320;2024-03-02T10:53:44;4.13;;;1.25;;
10761;SDS011;5433;50.862;4.320;2024-03-02T10:56:11;3.63;;;1.20;;
10761;SDS011;5433;50.862;4.320;2024-03-02T10:58:41;4.55;;;1.13;;
10761;SDS011;5433;50.862;4.320;2024-03-02T11:01:07;7.38;;;1.80;;
10761;SDS011;5433;50.862;4.320;2024-03-02T11:03:37;3.60;;;1.13;;
10761;SDS011;5433;50.862;4.320;2024-03-02T11:06:03;8.73;;;1.58;;
10761;SDS011;5433;50.862;4.320;2024-03-02T11:08:31;6.22;;;1.30;;
10761;SDS011;5433;50.862;4.320;2024-03-02T11:11:07;3.67;;;1.40;;
10761;SDS011;5433;50.862;4.320;2024-03-02T11:13:35;4.65;;;1.27;;
10761;SDS011;5433;50.862;4.320;2024-03-02T11:16:04;3.05;;;1.20;;
10761;SDS011;5433;50.862;4.320;2024-03-02T11:18:31;3.67;;;1.38;;
10761;SDS011;5433;50.862;4.320;2024-03-02T11:20:58;5.65;;;1.30;;
10761;SDS011;5433;50.862;4.320;2024-03-02T11:23:34;3.20;;;1.10;;
10761;SDS011;5433;50.862;4.320;2024-03-02T11:26:19;3.10;;;1.25;;
10761;SDS011;5433;50.862;4.320;2024-03-02T11:28:45;6.03;;;1.42;;
10761;SDS011;5433;50.862;4.320;2024-03-02T11:31:11;4.80;;;1.40;;
10761;SDS011;5433;50.862;4.320;2024-03-02T11:33:37;7.05;;;1.40;;
10761;SDS011;5433;50.862;4.320;2024-03-02T11:39:07;2.80;;;1.10;;
10761;SDS011;5433;50.862;4.320;2024-03-02T11:41:33;4.30;;;1.10;;
10761;SDS011;5433;50.862;4.320;2024-03-02T11:43:59;4.28;;;1.30;;
10761;SDS011;5433;50.862;4.320;2024-03-02T11:46:25;5.25;;;1.35;;
10761;SDS011;5433;50.862;4.320;2024-03-02T11:48:51;4.85;;;1.20;;
10761;SDS011;5433;50.862;4.320;2024-03-02T11:51:19;3.92;;;1.20;;
10761;SDS011;5433;50.862;4.320;2024-03-02T11:53:44;6.00;;;1.30;;
10761;SDS011;5433;50.862;4.320;2024-03-02T11:56:12;4.30;;;1.48;;
10761;SDS011;5433;50.862;4.320;2024-03-02T11:58:38;3.25;;;1.25;;
10761;SDS011;5433;50.862;4.320;2024-03-02T12:01:06;5.35;;;1.67;;
10761;SDS011;5433;50.862;4.320;2024-03-02T12:03:32;3.53;;;1.10;;
10761;SDS011;5433;50.862;4.320;2024-03-02T12:05:58;3.28;;;1.13;;
10761;SDS011;5433;50.862;4.320;2024-03-02T12:08:24;3.63;;;1.20;;
10761;SDS011;5433;50.862;4.320;2024-03-02T12:11:00;3.05;;;1.10;;
10761;SDS011;5433;50.862;4.320;2024-03-02T12:13:26;5.32;;;1.30;;
10761;SDS011;5433;50.862;4.320;2024-03-02T12:15:53;5.05;;;1.30;;
10761;SDS011;5433;50.862;4.320;2024-03-02T12:18:23;2.90;;;1.38;;
10761;SDS011;5433;50.862;4.320;2024-03-02T12:20:49;3.75;;;1.10;;
10761;SDS011;5433;50.862;4.320;2024-03-02T12:23:17;3.78;;;1.10;;
10761;SDS011;5433;50.862;4.320;2024-03-02T12:25:44;4.95;;;1.30;;
10761;SDS011;5433;50.862;4.320;2024-03-02T12:28:11;3.95;;;1.13;;
10761;SDS011;5433;50.862;4.320;2024-03-02T12:30:37;3.00;;;1.10;;
10761;SDS011;5433;50.862;4.320;2024-03-02T12:33:03;3.50;;;1.23;;
10761;SDS011;5433;50.862;4.320;2024-03-02T12:35:29;2.67;;;1.05;;
10761;SDS011;5433;50.862;4.320;2024-03-02T12:37:55;2.97;;;1.10;;
10761;SDS011;5433;50.862;4.320;2024-03-02T12:40:21;3.97;;;1.10;;
10761;SDS011;5433;50.862;4.320;2024-03-02T12:42:48;3.67;;;1.10;;
10761;SDS011;5433;50.862;4.320;2024-03-02T12:45:14;4.25;;;1.13;;
10761;SDS011;5433;50.862;4.320;2024-03-02T12:47:41;5.10;;;0.98;;
10761;SDS011;5433;50.862;4.320;2024-03-02T12:50:07;2.72;;;1.00;;
10761;SDS011;5433;50.862;4.320;2024-03-02T12:52:34;3.10;;;1.27;;
10761;SDS011;5433;50.862;4.320;2024-03-02T12:55:00;4.00;;;1.08;;
10761;SDS011;5433;50.862;4.320;2024-03-02T12:57:28;3.63;;;1.10;;
10761;SDS011;5433;50.862;4.320;2024-03-02T13:00:01;3.35;;;1.75;;
10761;SDS011;5433;50.862;4.320;2024-03-02T13:02:34;3.63;;;1.13;;
10761;SDS011;5433;50.862;4.320;2024-03-02T13:05:00;3.30;;;1.00;;
10761;SDS011;5433;50.862;4.320;2024-03-02T13:07:26;1.95;;;0.90;;
10761;SDS011;5433;50.862;4.320;2024-03-02T13:09:52;1.98;;;1.05;;
10761;SDS011;5433;50.862;4.320;2024-03-02T13:12:20;3.90;;;1.20;;
10761;SDS011;5433;50.862;4.320;2024-03-02T13:14:49;2.47;;;1.00;;
10761;SDS011;5433;50.862;4.320;2024-03-02T13:17:20;2.72;;;1.00;;
10761;SDS011;5433;50.862;4.320;2024-03-02T13:19:56;2.97;;;1.02;;
10761;SDS011;5433;50.862;4.320;2024-03-02T13:22:22;3.45;;;1.13;;
10761;SDS011;5433;50.862;4.320;2024-03-02T13:24:49;3.00;;;0.85;;
10761;SDS011;5433;50.862;4.320;2024-03-02T13:27:15;2.65;;;1.02;;
10761;SDS011;5433;50.862;4.320;2024-03-02T13:29:44;3.65;;;1.17;;
10761;SDS011;5433;50.862;4.320;2024-03-02T13:32:10;2.65;;;1.00;;
10761;SDS011;5433;50.862;4.320;2024-03-02T13:34:36;4.63;;;1.25;;
10761;SDS011;5433;50.862;4.320;2024-03-02T13:37:02;2.63;;;1.00;;
10761;SDS011;5433;50.862;4.320;2024-03-02T13:39:30;2.90;;;1.00;;
10761;SDS011;5433;50.862;4.320;2024-03-02T13:41:57;2.22;;;0.90;;
10761;SDS011;5433;50.862;4.320;2024-03-02T13:44:29;3.17;;;1.00;;
10761;SDS011;5433;50.862;4.320;2024-03-02T13:46:55;3.05;;;1.00;;
10761;SDS011;5433;50.862;4.320;2024-03-02T13:49:21;4.45;;;1.10;;
10761;SDS011;5433;50.862;4.320;2024-03-02T13:51:48;2.47;;;1.02;;
10761;SDS011;5433;50.862;4.320;2024-03-02T13:54:14;3.50;;;1.20;;
10761;SDS011;5433;50.862;4.320;2024-03-02T13:56:40;1.90;;;1.10;;
10761;SDS011;5433;50.862;4.320;2024-03-02T13:59:06;2.35;;;1.30;;
10761;SDS011;5433;50.862;4.320;2024-03-02T14:01:33;3.53;;;0.90;;
10761;SDS011;5433;50.862;4.320;2024-03-02T14:03:59;2.90;;;1.20;;
10761;SDS011;5433;50.862;4.320;2024-03-02T14:06:25;3.80;;;1.45;;
10761;SDS011;5433;50.862;4.320;2024-03-02T14:08:52;2.50;;;1.10;;
10761;SDS011;5433;50.862;4.320;2024-03-02T14:11:18;3.42;;;1.20;;
10761;SDS011;5433;50.862;4.320;2024-03-02T14:13:44;2.60;;;1.30;;
10761;SDS011;5433;50.862;4.320;2024-03-02T14:16:18;1.65;;;1.13;;
10761;SDS011;5433;50.862;4.320;2024-03-02T14:18:44;2.25;;;1.10;;
10761;SDS011;5433;50.862;4.320;2024-03-02T14:21:10;4.07;;;1.10;;
10761;SDS011;5433;50.862;4.320;2024-03-02T14:23:45;3.90;;;1.40;;
10761;SDS011;5433;50.862;4.320;2024-03-02T14:26:11;3.72;;;1.27;;
10761;SDS011;5433;50.862;4.320;2024-03-02T14:28:37;2.90;;;1.05;;
10761;SDS011;5433;50.862;4.320;2024-03-02T14:31:03;2.03;;;0.90;;
10761;SDS011;5433;50.862;4.320;2024-03-02T14:33:29;1.67;;;0.85;;
10761;SDS011;5433;50.862;4.320;2024-03-02T14:35:55;4.47;;;1.20;;
10761;SDS011;5433;50.862;4.320;2024-03-02T14:38:21;1.80;;;0.93;;
10761;SDS011;5433;50.862;4.320;2024-03-02T14:40:47;2.05;;;1.00;;
10761;SDS011;5433;50.862;4.320;2024-03-02T14:43:13;4.13;;;1.20;;
10761;SDS011;5433;50.862;4.320;2024-03-02T14:45:39;2.28;;;0.82;;
10761;SDS011;5433;50.862;4.320;2024-03-02T14:48:05;2.97;;;1.17;;
10761;SDS011;5433;50.862;4.320;2024-03-02T14:50:31;1.80;;;1.00;;
10761;SDS011;5433;50.862;4.320;2024-03-02T14:52:58;2.22;;;0.85;;
10761;SDS011;5433;50.862;4.320;2024-03-02T14:55:25;3.72;;;1.08;;
10761;SDS011;5433;50.862;4.320;2024-03-02T14:57:52;1.58;;;1.05;;
10761;SDS011;5433;50.862;4.320;2024-03-02T15:00:18;1.50;;;1.15;;
10761;SDS011;5433;50.862;4.320;2024-03-02T15:02:44;3.83;;;1.80;;
10761;SDS011;5433;50.862;4.320;2024-03-02T15:05:21;2.53;;;1.05;;
10761;SDS011;5433;50.862;4.320;2024-03-02T15:07:47;4.65;;;1.30;;
10761;SDS011;5433;50.862;4.320;2024-03-02T15:10:13;3.15;;;1.02;;
10761;SDS011;5433;50.862;4.320;2024-03-02T15:12:39;3.03;;;1.10;;